Ana Sayfa
METAR-TAF:

METAR-TAF

Havaalanları :

East Hampton Airport

East Hampton, New York, Amerika Birleşik Devletleri

Enlem: 40-57-34N, Boylam: 072-15-07W, yükseklik: 17 m

Güncel hava durumu gözlemi

Rapor saat 22:15 UTC de 32 dakika önce yapıldı.
Rüzgar kuzey/kuzeybatıdan 13 kt ve 20 kt'a kadar ani rüzgarlar
Sıcaklık 20°C
Nem 30%
Basınç 1012 hPa
Görüş mesafesi: 16.1 km
Açık gökyüzü

METAR: KHTO 212215Z AUTO 33013G20KT 10SM CLR 20/02 A2989 RMK AO2 T01970019

Saat: 18:47 (22:47 UTC)


TAF: eksik

4.000'den fazla havaalanı için hava durumu gözlemleri ve tahminleri (METAR ve TAF raporları).

Kullanılabilir istasyonlar harita üzerinde sarı ve kırmızı noktalarla gösterilir.

İstasyonun adını görmek için fareyi noktanın üzerinde gezdirin.

Sonrasında hava gözlem ve tahminlerini görmek için tıklayın.

Haritayı değiştirmek için: yaklaştırmak için siyah artı işaretli yeşil düğmeye ve uzaklaştırmak için de eksi işaretli düğmeye hızla tıklayın; bitişik haritalar için yeşil okları kullanın.


METAR-TAF: